Lucerne, IN (46950)

2:09 AM EST on February 06, 2016 (GMT -0500)
APRSWXNET | | Change Station
CLOSE
Current Station
Personal Weather Station
Location: Logansport, IN
Elevation: 633 ft
Nearby Weather Stations

Elev 633 ft 40.76 °N, 86.36 °W | Updated 31 minutes ago

Clear
Clear
26 °F
Feels Like 26 °F
N
0
Wind Variable Wind from West
Gusts 0.0 mph

Today
High -- | Low -- °F
--% Chance of Precip.
Yesterday
High -- | Low -- °F
Precip. -- in
Pressure 30.33 in
Visibility 7.0 miles
Clouds Clear
Windchill 26 °F
Dew Point 23 °F
Humidity 87%
Rainfall in
Snow Depth Not available.
7:51 AM 6:08 PM
Waning Crescent, 7% visible
METAR KGGP 060655Z AUTO 24003KT 7SM CLR M05/M07 A3033 RMK AO2
Pressure 30.33 in
Visibility 7.0 miles
Clouds Clear
Windchill 26 °F
Dew Point 23 °F
Humidity 87%
Rainfall in
Snow Depth Not available.
7:51 AM 6:08 PM
Waning Crescent, 7% visible
METAR KGGP 060655Z AUTO 24003KT 7SM CLR M05/M07 A3033 RMK AO2

10-Day Weather Forecast

Almanac

Astronomy

Feb. 06, 2016 Rise Set
Actual Time
Civil Twilight
Nautical Twilight
Astronomical Twilight
Moon
Length of Visible Light
Length of Day
Tomorrow will be .
, % of the Moon is Illuminated

Today's Extremes

State Highs State Lows

Community

WunderPhotos

Upload Photos

1,890,932 photos uploaded!

WunderBlog® & News

Nearby

Air Quality

  Air Quality AQ Index Pollutant
Not available.

Snow Depth

Station Depth Elevation

Earthquake Activity

City Distance Mag. Time & Date
Minimum magnitude displayed is 2.5.

Coastal Water Temperatures

Place Temperature

Stations

Nearby Weather Stations

Station Location Temp. Windchill Dew Point Humidity Wind Precip. Elev Updated Type
                   

Watches & Warnings

There are currently no watches in effect.